createdAt,value
2023-11-20T00:01:35.114Z,4.01
2023-11-20T00:04:38.289Z,3.94
2023-11-20T00:07:42.009Z,3.88
2023-11-20T00:10:47.455Z,3.96
2023-11-20T00:13:49.883Z,3.98
2023-11-20T00:16:53.414Z,3.96
2023-11-20T00:19:56.804Z,3.85
2023-11-20T00:22:59.262Z,3.78
2023-11-20T00:26:01.750Z,3.55
2023-11-20T00:29:07.505Z,3.33
2023-11-20T00:32:09.918Z,3.27
2023-11-20T00:35:12.268Z,3.28
2023-11-20T00:38:14.570Z,3.31
2023-11-20T00:41:19.468Z,3.22
2023-11-20T00:44:21.815Z,3.17
2023-11-20T00:47:25.695Z,3.18
2023-11-20T00:50:28.308Z,3.05
2023-11-20T00:53:30.645Z,3.01
2023-11-20T00:56:33.270Z,2.98
2023-11-20T00:59:35.869Z,3.00
2023-11-20T01:02:39.142Z,2.98
2023-11-20T01:05:43.535Z,3.09
2023-11-20T01:08:45.976Z,3.17
2023-11-20T01:11:48.378Z,3.01
2023-11-20T01:14:50.858Z,2.80
2023-11-20T01:17:53.410Z,2.84
2023-11-20T01:20:55.762Z,2.63
2023-11-20T01:23:58.093Z,2.79
2023-11-20T01:27:00.522Z,2.80
2023-11-20T01:30:03.102Z,2.83
2023-11-20T01:33:05.525Z,2.64
2023-11-20T01:36:08.318Z,2.57
2023-11-20T01:39:12.409Z,2.60
2023-11-20T01:42:14.991Z,2.65
2023-11-20T01:45:17.479Z,2.76
2023-11-20T01:48:21.074Z,2.79
2023-11-20T01:51:25.871Z,2.97
2023-11-20T01:54:29.775Z,2.99
2023-11-20T01:57:32.206Z,3.06
2023-11-20T02:00:37.908Z,3.05
2023-11-20T02:03:40.481Z,3.01
2023-11-20T02:06:43.667Z,2.98
2023-11-20T02:09:47.159Z,2.96
2023-11-20T02:12:50.830Z,3.01
2023-11-20T02:15:53.524Z,3.05
2023-11-20T02:18:55.955Z,3.09
2023-11-20T02:21:58.775Z,3.04
2023-11-20T02:25:01.329Z,2.97
2023-11-20T02:28:28.035Z,3.00
2023-11-20T02:31:34.441Z,3.01
2023-11-20T02:34:39.226Z,3.07
2023-11-20T02:37:42.101Z,3.13
2023-11-20T02:40:49.421Z,3.13
2023-11-20T02:43:52.881Z,3.10
2023-11-20T02:46:55.291Z,3.08
2023-11-20T02:49:57.837Z,3.29
2023-11-20T02:53:00.225Z,3.23
2023-11-20T02:56:03.473Z,3.15
2023-11-20T02:59:05.972Z,3.09
2023-11-20T03:02:08.428Z,3.15
2023-11-20T03:05:10.855Z,3.20
2023-11-20T03:08:13.562Z,3.13
2023-11-20T03:11:15.927Z,3.15
2023-11-20T03:14:21.531Z,3.16
2023-11-20T03:17:24.500Z,3.07
2023-11-20T03:20:27.171Z,3.11
2023-11-20T03:23:31.991Z,3.06
2023-11-20T03:26:34.452Z,3.15
2023-11-20T03:29:37.400Z,3.22
2023-11-20T03:32:39.959Z,3.27
2023-11-20T03:35:42.355Z,3.39
2023-11-20T03:38:45.738Z,3.36
2023-11-20T03:41:48.585Z,3.32
2023-11-20T03:44:52.166Z,3.16
2023-11-20T03:47:54.507Z,3.12
2023-11-20T03:50:56.872Z,3.21
2023-11-20T03:53:59.272Z,3.22
2023-11-20T03:57:01.579Z,3.24
2023-11-20T04:00:06.047Z,3.14
2023-11-20T04:03:08.492Z,3.13
2023-11-20T04:06:10.907Z,3.14
2023-11-20T04:09:15.821Z,3.18
2023-11-20T04:12:19.471Z,3.19
2023-11-20T04:15:23.719Z,3.11
2023-11-20T04:18:26.087Z,3.11
2023-11-20T04:21:31.222Z,3.10
2023-11-20T04:24:34.481Z,3.13
2023-11-20T04:27:37.102Z,3.23
2023-11-20T04:30:40.076Z,3.24
2023-11-20T04:33:49.759Z,3.22
2023-11-20T04:36:53.274Z,3.20
2023-11-20T04:39:55.921Z,3.27
2023-11-20T04:42:58.335Z,3.27
2023-11-20T04:46:00.942Z,3.33
2023-11-20T04:49:03.329Z,3.35
2023-11-20T04:52:06.074Z,3.43
2023-11-20T04:55:09.817Z,3.49
2023-11-20T04:58:12.260Z,3.60
2023-11-20T05:01:17.735Z,3.74
2023-11-20T05:04:24.985Z,3.70
2023-11-20T05:07:27.537Z,3.54
2023-11-20T05:10:29.875Z,3.55
2023-11-20T05:13:32.266Z,3.52
2023-11-20T05:16:37.284Z,3.58
2023-11-20T05:19:39.615Z,3.53
2023-11-20T05:22:42.002Z,3.61
2023-11-20T05:25:44.438Z,3.58
2023-11-20T05:28:46.883Z,3.44
2023-11-20T05:31:51.410Z,3.52
2023-11-20T05:34:53.748Z,3.48
2023-11-20T05:37:56.087Z,3.52
2023-11-20T05:40:58.936Z,3.53
2023-11-20T05:44:01.374Z,3.51
2023-11-20T05:47:10.136Z,3.45
2023-11-20T05:50:12.516Z,3.40
2023-11-20T05:53:14.868Z,3.28
2023-11-20T05:56:17.195Z,3.36
2023-11-20T05:59:19.692Z,3.20
2023-11-20T06:02:29.319Z,3.34
2023-11-20T06:05:32.092Z,3.43
2023-11-20T06:08:38.372Z,3.22
2023-11-20T06:11:43.810Z,3.22
2023-11-20T06:14:52.186Z,3.20
2023-11-20T06:17:54.852Z,3.16
2023-11-20T06:20:57.226Z,3.23
2023-11-20T06:23:59.647Z,3.25
2023-11-20T06:27:01.982Z,3.05
2023-11-20T06:30:07.674Z,2.97
2023-11-20T06:33:10.048Z,2.82
2023-11-20T06:36:13.042Z,2.72
2023-11-20T06:39:15.361Z,2.82
2023-11-20T06:42:17.754Z,3.07
2023-11-20T06:45:22.540Z,3.31
2023-11-20T06:48:24.998Z,3.43
2023-11-20T06:51:31.197Z,3.55
2023-11-20T06:54:34.702Z,3.43
2023-11-20T06:57:37.104Z,3.62
2023-11-20T07:00:39.518Z,4.05
2023-11-20T07:03:45.861Z,4.77
2023-11-20T07:06:50.695Z,5.11
2023-11-20T07:09:53.485Z,4.39
2023-11-20T07:12:57.962Z,4.10
2023-11-20T07:16:00.975Z,3.94
2023-11-20T07:19:03.658Z,4.09
2023-11-20T07:22:09.411Z,4.80
2023-11-20T07:25:12.593Z,6.08
2023-11-20T07:28:18.315Z,5.92
2023-11-20T07:31:32.666Z,6.23
2023-11-20T07:34:37.476Z,6.96
2023-11-20T07:37:41.147Z,7.30
2023-11-20T07:40:55.748Z,7.28
2023-11-20T07:44:01.982Z,6.47
2023-11-20T07:47:11.804Z,6.24
2023-11-20T07:50:15.952Z,6.22
2023-11-20T07:53:19.321Z,6.26
2023-11-20T07:56:21.703Z,6.37
2023-11-20T07:59:24.696Z,6.69
2023-11-20T08:02:28.066Z,6.57
2023-11-20T08:05:40.997Z,6.41
2023-11-20T08:08:47.504Z,6.83
2023-11-20T08:11:53.941Z,7.23
2023-11-20T08:14:56.356Z,6.95
2023-11-20T08:17:58.699Z,7.25
2023-11-20T08:21:01.112Z,7.39
2023-11-20T08:24:03.588Z,7.72
2023-11-20T08:27:06.915Z,8.09
2023-11-20T08:30:09.815Z,8.64
2023-11-20T08:33:12.351Z,8.92
2023-11-20T08:36:15.273Z,8.50
2023-11-20T08:39:26.344Z,8.49
2023-11-20T08:42:34.775Z,8.31
2023-11-20T08:45:39.830Z,8.34
2023-11-20T08:48:42.178Z,8.18
2023-11-20T08:51:49.091Z,8.10
2023-11-20T08:54:58.384Z,8.07
2023-11-20T08:58:00.801Z,8.08
2023-11-20T09:01:03.421Z,8.01
2023-11-20T09:04:11.597Z,7.80
2023-11-20T09:07:14.500Z,7.60
2023-11-20T09:10:24.407Z,7.61
2023-11-20T09:13:26.941Z,7.69
2023-11-20T09:16:29.509Z,7.99
2023-11-20T09:19:34.012Z,8.29
2023-11-20T09:22:36.328Z,8.65
2023-11-20T09:25:40.309Z,8.77
2023-11-20T09:28:43.591Z,8.68
2023-11-20T09:31:49.062Z,8.41
2023-11-20T09:34:51.624Z,8.64
2023-11-20T09:37:54.942Z,8.86
2023-11-20T09:40:59.969Z,8.89
2023-11-20T09:44:05.004Z,8.94
2023-11-20T09:47:08.492Z,8.94
2023-11-20T09:50:12.245Z,8.71
2023-11-20T09:53:20.565Z,8.78
2023-11-20T09:56:23.072Z,8.56
2023-11-20T09:59:26.610Z,8.83
2023-11-20T10:02:30.162Z,8.84
2023-11-20T10:05:37.780Z,8.97
2023-11-20T10:08:47.751Z,9.23
2023-11-20T10:11:54.315Z,9.41
2023-11-20T10:15:04.589Z,9.43
2023-11-20T10:18:07.353Z,9.59
2023-11-20T10:21:09.814Z,9.71
2023-11-20T10:24:18.695Z,9.82
2023-11-20T10:27:34.361Z,10.14
2023-11-20T10:30:37.215Z,10.13
2023-11-20T10:33:39.818Z,10.27
2023-11-20T10:36:42.218Z,10.56
2023-11-20T10:39:45.163Z,10.75
2023-11-20T10:42:47.935Z,11.16
2023-11-20T10:45:52.997Z,11.79
2023-11-20T10:49:30.084Z,12.63
2023-11-20T10:52:32.749Z,12.55
2023-11-20T10:55:51.635Z,13.10
2023-11-20T10:58:55.901Z,13.44
2023-11-20T11:01:59.180Z,13.14
2023-11-20T11:05:07.959Z,13.64
2023-11-20T11:08:15.290Z,14.12
2023-11-20T11:11:18.324Z,14.34
2023-11-20T11:14:20.665Z,13.54
2023-11-20T11:17:26.042Z,13.21
2023-11-20T11:21:12.864Z,13.32
2023-11-20T11:24:17.076Z,12.94
2023-11-20T11:27:28.689Z,12.41
2023-11-20T11:30:38.046Z,12.53
2023-11-20T11:34:02.155Z,12.63
2023-11-20T11:37:11.112Z,12.56
2023-11-20T11:40:24.916Z,12.67
2023-11-20T11:43:39.893Z,12.60
2023-11-20T11:46:56.470Z,12.63
2023-11-20T11:49:59.168Z,12.65
2023-11-20T11:53:01.635Z,12.90
2023-11-20T11:56:11.154Z,12.98
2023-11-20T11:59:36.855Z,13.10
2023-11-20T12:02:51.338Z,13.06
2023-11-20T12:05:58.227Z,13.01
2023-11-20T12:09:06.032Z,12.96
2023-11-20T12:12:11.417Z,12.80
2023-11-20T12:15:51.988Z,14.15
2023-11-20T12:18:57.569Z,14.64
2023-11-20T12:22:00.967Z,15.15
2023-11-20T12:25:03.757Z,14.76
2023-11-20T12:28:09.221Z,15.02
2023-11-20T12:31:13.954Z,16.79
2023-11-20T12:34:18.256Z,15.79
2023-11-20T12:37:22.031Z,14.72
2023-11-20T12:40:25.923Z,14.39
2023-11-20T12:43:29.994Z,14.95
2023-11-20T12:46:34.989Z,14.84
2023-11-20T12:49:37.556Z,17.43
2023-11-20T12:52:41.644Z,18.74
2023-11-20T12:55:45.455Z,17.89
2023-11-20T12:58:51.035Z,17.50
2023-11-20T13:01:53.684Z,17.17
2023-11-20T13:04:56.265Z,16.41
2023-11-20T13:08:03.985Z,14.93
2023-11-20T13:11:08.844Z,15.92
2023-11-20T13:14:11.156Z,16.24
2023-11-20T13:17:13.501Z,16.38
2023-11-20T13:20:45.749Z,15.31
2023-11-20T13:24:03.939Z,14.24
2023-11-20T13:27:08.240Z,14.24
2023-11-20T13:30:21.577Z,13.53
2023-11-20T13:33:25.901Z,12.97
2023-11-20T13:36:29.418Z,12.96
2023-11-20T13:39:33.074Z,12.84
2023-11-20T13:42:39.968Z,12.75
2023-11-20T13:45:43.808Z,12.62
2023-11-20T13:48:48.557Z,12.58
2023-11-20T13:51:52.558Z,12.45
2023-11-20T13:54:57.369Z,12.33
2023-11-20T13:57:59.718Z,12.46
2023-11-20T14:01:03.298Z,12.35
2023-11-20T14:04:11.003Z,12.18
2023-11-20T14:07:14.013Z,12.26
2023-11-20T14:10:16.915Z,12.19
2023-11-20T14:13:20.646Z,13.47
2023-11-20T14:16:23.244Z,13.68
2023-11-20T14:19:28.758Z,14.21
2023-11-20T14:22:31.463Z,14.17
2023-11-20T14:25:34.416Z,15.15
2023-11-20T14:28:37.067Z,13.76
2023-11-20T14:31:40.667Z,16.30
2023-11-20T14:34:48.797Z,15.49
2023-11-20T14:37:52.661Z,15.08
2023-11-20T14:40:58.541Z,14.02
2023-11-20T14:44:00.890Z,12.98
2023-11-20T14:47:03.386Z,12.32
2023-11-20T14:50:12.568Z,11.90
2023-11-20T14:53:16.048Z,11.82
2023-11-20T14:56:19.134Z,11.76
2023-11-20T14:59:21.514Z,11.59
2023-11-20T15:02:23.913Z,11.49
2023-11-20T15:05:27.446Z,11.54
2023-11-20T15:08:29.839Z,11.66
2023-11-20T15:11:32.302Z,11.65
2023-11-20T15:14:34.751Z,11.60
2023-11-20T15:17:37.930Z,11.56
2023-11-20T15:20:40.209Z,11.53
2023-11-20T15:23:42.475Z,11.52
2023-11-20T15:26:47.534Z,11.48
2023-11-20T15:29:49.942Z,11.49
2023-11-20T15:32:52.233Z,11.39
2023-11-20T15:35:54.565Z,11.34
2023-11-20T15:38:57.206Z,11.36
2023-11-20T15:42:00.836Z,11.22
2023-11-20T15:45:05.440Z,11.25
2023-11-20T15:48:07.949Z,11.34
2023-11-20T15:51:10.301Z,11.22
2023-11-20T15:54:17.889Z,11.42
2023-11-20T15:57:23.633Z,11.29
2023-11-20T16:00:27.093Z,11.44
2023-11-20T16:03:30.021Z,11.29
2023-11-20T16:06:32.620Z,11.27
2023-11-20T16:09:38.311Z,11.27
2023-11-20T16:12:41.129Z,11.41
2023-11-20T16:15:47.154Z,11.51
2023-11-20T16:18:49.700Z,11.42
2023-11-20T16:21:52.012Z,11.26
2023-11-20T16:24:54.457Z,11.14
2023-11-20T16:27:56.872Z,11.13
2023-11-20T16:30:59.242Z,11.06
2023-11-20T16:34:03.208Z,10.90
2023-11-20T16:37:16.859Z,10.61
2023-11-20T16:40:19.311Z,10.38
2023-11-20T16:43:21.701Z,10.44
2023-11-20T16:46:26.253Z,10.31
2023-11-20T16:49:30.146Z,10.18
2023-11-20T16:52:32.947Z,10.22
2023-11-20T16:55:35.295Z,10.20
2023-11-20T16:58:38.261Z,10.21
2023-11-20T17:01:40.810Z,10.05
2023-11-20T17:04:43.309Z,10.04
2023-11-20T17:07:45.857Z,10.01
2023-11-20T17:10:48.227Z,9.98
2023-11-20T17:13:51.137Z,9.97
2023-11-20T17:16:54.173Z,9.98
2023-11-20T17:19:57.535Z,9.93
2023-11-20T17:23:01.011Z,9.90
2023-11-20T17:26:03.569Z,9.82
2023-11-20T17:29:06.094Z,9.82
2023-11-20T17:32:11.300Z,9.92
2023-11-20T17:35:17.086Z,9.90
2023-11-20T17:38:19.393Z,9.82
2023-11-20T17:41:22.263Z,9.74
2023-11-20T17:44:24.578Z,9.68
2023-11-20T17:47:29.736Z,9.65
2023-11-20T17:50:32.464Z,9.86
2023-11-20T17:53:35.721Z,9.80
2023-11-20T17:56:42.847Z,9.77
2023-11-20T17:59:46.216Z,9.83
2023-11-20T18:02:48.930Z,9.87
2023-11-20T18:05:51.565Z,9.82
2023-11-20T18:08:57.325Z,9.82
2023-11-20T18:11:59.618Z,9.70
2023-11-20T18:15:01.948Z,9.57
2023-11-20T18:18:06.081Z,9.43
2023-11-20T18:21:08.522Z,9.36
2023-11-20T18:24:14.895Z,9.20
2023-11-20T18:27:17.446Z,9.17
2023-11-20T18:30:19.848Z,9.11
2023-11-20T18:33:23.349Z,8.98
2023-11-20T18:36:25.613Z,8.81
2023-11-20T18:39:27.926Z,8.68
2023-11-20T18:42:30.302Z,8.60
2023-11-20T18:45:32.662Z,8.61
2023-11-20T18:48:34.991Z,8.51
2023-11-20T18:51:37.308Z,8.34
2023-11-20T18:54:42.246Z,8.28
2023-11-20T18:57:51.309Z,8.27
2023-11-20T19:00:53.710Z,8.23
2023-11-20T19:03:56.078Z,8.24
2023-11-20T19:06:58.788Z,8.45
2023-11-20T19:10:01.377Z,8.38
2023-11-20T19:13:03.740Z,8.37
2023-11-20T19:16:08.914Z,8.39
2023-11-20T19:19:11.625Z,8.27
2023-11-20T19:22:14.092Z,8.11
2023-11-20T19:25:16.497Z,8.02
2023-11-20T19:28:21.203Z,8.00
2023-11-20T19:31:23.602Z,7.80
2023-11-20T19:34:26.401Z,7.64
2023-11-20T19:37:28.775Z,7.63
2023-11-20T19:40:31.197Z,7.60
2023-11-20T19:43:33.498Z,7.55
2023-11-20T19:46:38.994Z,7.39
2023-11-20T19:49:42.199Z,7.32
2023-11-20T19:52:46.232Z,7.24
2023-11-20T19:55:49.629Z,7.21
2023-11-20T19:58:54.406Z,7.13
2023-11-20T20:02:00.679Z,6.99
2023-11-20T20:05:04.338Z,7.03
2023-11-20T20:08:06.831Z,7.01
2023-11-20T20:11:09.171Z,7.06
2023-11-20T20:14:11.546Z,7.11
2023-11-20T20:17:14.393Z,7.01
2023-11-20T20:20:18.869Z,6.97
2023-11-20T20:23:21.580Z,7.03
2023-11-20T20:26:31.763Z,7.18
2023-11-20T20:29:34.098Z,7.18
2023-11-20T20:32:37.008Z,6.92
2023-11-20T20:35:39.352Z,6.64
2023-11-20T20:38:45.318Z,6.47
2023-11-20T20:41:47.576Z,6.35
2023-11-20T20:44:52.062Z,6.55
2023-11-20T20:47:54.921Z,6.60
2023-11-20T20:50:57.283Z,6.73
2023-11-20T20:54:00.339Z,6.72
2023-11-20T20:57:02.674Z,6.72
2023-11-20T21:00:14.751Z,6.81
2023-11-20T21:03:18.821Z,6.70
2023-11-20T21:06:27.841Z,6.86
2023-11-20T21:09:30.155Z,6.79
2023-11-20T21:12:32.482Z,6.92
2023-11-20T21:15:35.460Z,6.81
2023-11-20T21:18:37.771Z,6.82
2023-11-20T21:21:40.122Z,6.88
2023-11-20T21:24:42.470Z,7.01
2023-11-20T21:27:45.966Z,7.12
2023-11-20T21:30:48.319Z,7.05
2023-11-20T21:33:50.607Z,7.07
2023-11-20T21:36:52.941Z,6.89
2023-11-20T21:39:55.242Z,6.87
2023-11-20T21:42:57.547Z,6.81
2023-11-20T21:46:00.323Z,6.65
2023-11-20T21:49:02.684Z,6.43
2023-11-20T21:52:05.185Z,6.33
2023-11-20T21:55:07.875Z,6.24
2023-11-20T21:58:10.670Z,6.20
2023-11-20T22:01:13.584Z,6.35
2023-11-20T22:04:16.365Z,6.54
2023-11-20T22:07:19.034Z,6.35
2023-11-20T22:10:22.684Z,6.11
2023-11-20T22:13:25.255Z,6.14
2023-11-20T22:16:27.674Z,6.23
2023-11-20T22:19:30.089Z,6.50
2023-11-20T22:22:36.009Z,6.54
2023-11-20T22:25:38.357Z,6.38
2023-11-20T22:28:40.774Z,6.05
2023-11-20T22:31:43.200Z,5.89
2023-11-20T22:34:50.003Z,5.87
2023-11-20T22:38:00.549Z,5.80
2023-11-20T22:41:06.172Z,5.64
2023-11-20T22:44:10.350Z,5.75
2023-11-20T22:47:13.423Z,6.01
2023-11-20T22:50:17.729Z,6.14
2023-11-20T22:53:20.091Z,6.11
2023-11-20T22:56:22.387Z,6.09
2023-11-20T22:59:25.776Z,5.94
2023-11-20T23:02:29.401Z,6.11
2023-11-20T23:05:31.852Z,6.16
2023-11-20T23:08:37.044Z,6.32
2023-11-20T23:11:43.973Z,6.38
2023-11-20T23:14:46.284Z,6.34
2023-11-20T23:17:48.744Z,6.29
2023-11-20T23:20:51.053Z,6.64
2023-11-20T23:23:53.553Z,6.70
2023-11-20T23:26:56.645Z,6.73
2023-11-20T23:29:58.941Z,7.24
2023-11-20T23:33:01.418Z,7.20
2023-11-20T23:36:04.089Z,7.17
2023-11-20T23:39:10.903Z,6.87
2023-11-20T23:42:16.217Z,6.77
2023-11-20T23:45:19.119Z,6.85
2023-11-20T23:48:21.871Z,6.86
2023-11-20T23:51:24.719Z,6.84
2023-11-20T23:54:27.102Z,6.91
2023-11-20T23:57:29.458Z,6.68
